Terminal Aerodrome Forecast
Issued by NWS

Home | Current Version | Previous Version | Text Only | Print | Product List | Glossary On
Versions: 1 2 3 4 5 6 7 8 9 10 11 12 13 14 15 16 17 18 19
000
FTUS42 KILM 280541
TAFCRE
TAF
KCRE 280541Z 2806/2906 07006KT P6SM VCSH SCT020 OVC035
     FM280800 14010KT P6SM VCTS SCT015CB OVC030
      TEMPO 2808/2812 2SM TSRA BR BKN010CB
     FM281200 16013KT 4SM TSRA BR OVC015CB
     FM281500 17012KT P6SM VCTS BKN025CB
     FM282200 18012KT P6SM VCTS BKN035CB
     FM290000 17010KT 4SM -TSRA BR OVC025CB=

USA.gov is the U.S. government's official web portal to all federal, state and local government web resources and services.